sensor_id;sensor_type;location;lat;lon;timestamp;P1;durP1;ratioP1;P2;durP2;ratioP2
49834;SDS011;35729;52.090;13.162;2023-11-21T00:00:09;49.50;;;15.45;;
49834;SDS011;35729;52.090;13.162;2023-11-21T00:02:40;56.70;;;16.37;;
49834;SDS011;35729;52.090;13.162;2023-11-21T00:05:08;49.60;;;16.40;;
49834;SDS011;35729;52.090;13.162;2023-11-21T00:07:39;53.13;;;16.83;;
49834;SDS011;35729;52.090;13.162;2023-11-21T00:10:08;48.75;;;15.80;;
49834;SDS011;35729;52.090;13.162;2023-11-21T00:12:39;44.08;;;14.88;;
49834;SDS011;35729;52.090;13.162;2023-11-21T00:15:11;53.83;;;16.35;;
49834;SDS011;35729;52.090;13.162;2023-11-21T00:17:39;49.55;;;16.08;;
49834;SDS011;35729;52.090;13.162;2023-11-21T00:20:08;50.33;;;15.18;;
49834;SDS011;35729;52.090;13.162;2023-11-21T00:22:38;58.20;;;16.67;;
49834;SDS011;35729;52.090;13.162;2023-11-21T00:25:06;52.45;;;15.52;;
49834;SDS011;35729;52.090;13.162;2023-11-21T00:27:36;50.90;;;15.23;;
49834;SDS011;35729;52.090;13.162;2023-11-21T00:30:05;48.38;;;14.68;;
49834;SDS011;35729;52.090;13.162;2023-11-21T00:32:37;53.70;;;16.27;;
49834;SDS011;35729;52.090;13.162;2023-11-21T00:35:06;48.80;;;15.95;;
49834;SDS011;35729;52.090;13.162;2023-11-21T00:37:35;55.05;;;14.90;;
49834;SDS011;35729;52.090;13.162;2023-11-21T00:40:04;61.70;;;17.17;;
49834;SDS011;35729;52.090;13.162;2023-11-21T00:42:34;44.13;;;14.68;;
49834;SDS011;35729;52.090;13.162;2023-11-21T00:45:03;47.15;;;16.00;;
49834;SDS011;35729;52.090;13.162;2023-11-21T00:47:32;55.95;;;17.58;;
49834;SDS011;35729;52.090;13.162;2023-11-21T00:50:03;46.63;;;15.35;;
49834;SDS011;35729;52.090;13.162;2023-11-21T00:52:32;53.20;;;15.63;;
49834;SDS011;35729;52.090;13.162;2023-11-21T00:55:01;51.20;;;15.65;;
49834;SDS011;35729;52.090;13.162;2023-11-21T00:57:29;44.88;;;14.63;;
49834;SDS011;35729;52.090;13.162;2023-11-21T00:59:58;51.92;;;15.20;;
49834;SDS011;35729;52.090;13.162;2023-11-21T01:02:27;56.20;;;16.30;;
49834;SDS011;35729;52.090;13.162;2023-11-21T01:04:55;54.25;;;16.73;;
49834;SDS011;35729;52.090;13.162;2023-11-21T01:07:27;52.13;;;15.18;;
49834;SDS011;35729;52.090;13.162;2023-11-21T01:09:55;57.67;;;15.40;;
49834;SDS011;35729;52.090;13.162;2023-11-21T01:12:24;47.25;;;15.60;;
49834;SDS011;35729;52.090;13.162;2023-11-21T01:14:52;49.40;;;14.65;;
49834;SDS011;35729;52.090;13.162;2023-11-21T01:17:21;50.00;;;15.45;;
49834;SDS011;35729;52.090;13.162;2023-11-21T01:19:50;57.17;;;16.17;;
49834;SDS011;35729;52.090;13.162;2023-11-21T01:22:27;50.47;;;15.05;;
49834;SDS011;35729;52.090;13.162;2023-11-21T01:24:56;53.90;;;15.27;;
49834;SDS011;35729;52.090;13.162;2023-11-21T01:27:24;45.70;;;14.25;;
49834;SDS011;35729;52.090;13.162;2023-11-21T01:29:53;51.20;;;15.32;;
49834;SDS011;35729;52.090;13.162;2023-11-21T01:32:21;53.40;;;15.80;;
49834;SDS011;35729;52.090;13.162;2023-11-21T01:34:50;49.10;;;15.05;;
49834;SDS011;35729;52.090;13.162;2023-11-21T01:37:18;45.58;;;14.75;;
49834;SDS011;35729;52.090;13.162;2023-11-21T01:39:50;41.38;;;14.98;;
49834;SDS011;35729;52.090;13.162;2023-11-21T01:42:18;49.67;;;14.63;;
49834;SDS011;35729;52.090;13.162;2023-11-21T01:44:46;55.95;;;15.70;;
49834;SDS011;35729;52.090;13.162;2023-11-21T01:47:15;54.25;;;15.02;;
49834;SDS011;35729;52.090;13.162;2023-11-21T01:49:45;57.90;;;13.85;;
49834;SDS011;35729;52.090;13.162;2023-11-21T01:52:14;48.75;;;14.75;;
49834;SDS011;35729;52.090;13.162;2023-11-21T01:54:43;50.00;;;14.93;;
49834;SDS011;35729;52.090;13.162;2023-11-21T01:57:15;48.28;;;14.73;;
49834;SDS011;35729;52.090;13.162;2023-11-21T01:59:44;40.33;;;14.27;;
49834;SDS011;35729;52.090;13.162;2023-11-21T02:02:13;46.38;;;14.25;;
49834;SDS011;35729;52.090;13.162;2023-11-21T02:04:42;51.13;;;14.32;;
49834;SDS011;35729;52.090;13.162;2023-11-21T02:07:10;47.60;;;15.73;;
49834;SDS011;35729;52.090;13.162;2023-11-21T02:09:39;50.35;;;15.32;;
49834;SDS011;35729;52.090;13.162;2023-11-21T02:12:07;64.32;;;22.38;;
49834;SDS011;35729;52.090;13.162;2023-11-21T02:14:39;55.88;;;22.25;;
49834;SDS011;35729;52.090;13.162;2023-11-21T02:17:08;54.15;;;21.55;;
49834;SDS011;35729;52.090;13.162;2023-11-21T02:19:38;51.40;;;22.65;;
49834;SDS011;35729;52.090;13.162;2023-11-21T02:22:06;59.33;;;22.65;;
49834;SDS011;35729;52.090;13.162;2023-11-21T02:25:07;58.55;;;21.65;;
49834;SDS011;35729;52.090;13.162;2023-11-21T02:27:36;60.97;;;18.17;;
49834;SDS011;35729;52.090;13.162;2023-11-21T02:30:05;45.22;;;16.02;;
49834;SDS011;35729;52.090;13.162;2023-11-21T02:32:38;55.08;;;14.95;;
49834;SDS011;35729;52.090;13.162;2023-11-21T02:35:13;51.97;;;15.68;;
49834;SDS011;35729;52.090;13.162;2023-11-21T02:37:41;48.35;;;14.55;;
49834;SDS011;35729;52.090;13.162;2023-11-21T02:40:13;46.88;;;15.70;;
49834;SDS011;35729;52.090;13.162;2023-11-21T02:42:42;50.63;;;16.92;;
49834;SDS011;35729;52.090;13.162;2023-11-21T02:45:12;49.38;;;15.23;;
49834;SDS011;35729;52.090;13.162;2023-11-21T02:47:41;43.88;;;13.50;;
49834;SDS011;35729;52.090;13.162;2023-11-21T02:50:10;45.33;;;13.95;;
49834;SDS011;35729;52.090;13.162;2023-11-21T02:52:39;45.88;;;14.63;;
49834;SDS011;35729;52.090;13.162;2023-11-21T02:55:08;50.17;;;15.48;;
49834;SDS011;35729;52.090;13.162;2023-11-21T02:57:39;55.45;;;16.05;;
49834;SDS011;35729;52.090;13.162;2023-11-21T03:00:08;44.15;;;15.15;;
49834;SDS011;35729;52.090;13.162;2023-11-21T03:02:40;16.67;;;9.32;;
49834;SDS011;35729;52.090;13.162;2023-11-21T03:05:08;16.58;;;9.20;;
49834;SDS011;35729;52.090;13.162;2023-11-21T03:07:37;16.40;;;8.65;;
49834;SDS011;35729;52.090;13.162;2023-11-21T03:10:07;16.27;;;8.20;;
49834;SDS011;35729;52.090;13.162;2023-11-21T03:12:39;18.05;;;9.88;;
49834;SDS011;35729;52.090;13.162;2023-11-21T03:15:09;20.85;;;10.60;;
49834;SDS011;35729;52.090;13.162;2023-11-21T03:17:38;20.33;;;11.07;;
49834;SDS011;35729;52.090;13.162;2023-11-21T03:20:08;30.10;;;13.73;;
49834;SDS011;35729;52.090;13.162;2023-11-21T03:22:39;30.55;;;13.70;;
49834;SDS011;35729;52.090;13.162;2023-11-21T03:25:07;30.88;;;13.90;;
49834;SDS011;35729;52.090;13.162;2023-11-21T03:27:41;27.70;;;13.07;;
49834;SDS011;35729;52.090;13.162;2023-11-21T03:30:09;32.30;;;13.93;;
49834;SDS011;35729;52.090;13.162;2023-11-21T03:32:39;30.50;;;14.85;;
49834;SDS011;35729;52.090;13.162;2023-11-21T03:35:07;36.45;;;14.32;;
49834;SDS011;35729;52.090;13.162;2023-11-21T03:37:36;36.83;;;15.48;;
49834;SDS011;35729;52.090;13.162;2023-11-21T03:40:07;39.70;;;15.57;;
49834;SDS011;35729;52.090;13.162;2023-11-21T03:42:37;40.90;;;15.75;;
49834;SDS011;35729;52.090;13.162;2023-11-21T03:45:09;41.80;;;15.48;;
49834;SDS011;35729;52.090;13.162;2023-11-21T03:47:37;40.85;;;15.80;;
49834;SDS011;35729;52.090;13.162;2023-11-21T03:50:06;48.50;;;17.15;;
49834;SDS011;35729;52.090;13.162;2023-11-21T03:52:35;45.13;;;16.98;;
49834;SDS011;35729;52.090;13.162;2023-11-21T03:55:05;46.10;;;18.17;;
49834;SDS011;35729;52.090;13.162;2023-11-21T03:57:34;44.92;;;15.73;;
49834;SDS011;35729;52.090;13.162;2023-11-21T04:00:02;41.80;;;16.23;;
49834;SDS011;35729;52.090;13.162;2023-11-21T04:02:40;40.28;;;16.05;;
49834;SDS011;35729;52.090;13.162;2023-11-21T04:05:09;42.55;;;16.70;;
49834;SDS011;35729;52.090;13.162;2023-11-21T04:07:37;44.75;;;16.02;;
49834;SDS011;35729;52.090;13.162;2023-11-21T04:10:06;47.63;;;16.73;;
49834;SDS011;35729;52.090;13.162;2023-11-21T04:12:38;56.80;;;17.95;;
49834;SDS011;35729;52.090;13.162;2023-11-21T04:15:07;47.58;;;18.40;;
49834;SDS011;35729;52.090;13.162;2023-11-21T04:17:37;46.47;;;17.45;;
49834;SDS011;35729;52.090;13.162;2023-11-21T04:20:09;38.17;;;14.95;;
49834;SDS011;35729;52.090;13.162;2023-11-21T04:22:38;36.25;;;13.48;;
49834;SDS011;35729;52.090;13.162;2023-11-21T04:25:09;34.28;;;13.23;;
49834;SDS011;35729;52.090;13.162;2023-11-21T04:27:39;32.40;;;13.23;;
49834;SDS011;35729;52.090;13.162;2023-11-21T04:30:09;35.90;;;13.38;;
49834;SDS011;35729;52.090;13.162;2023-11-21T04:32:45;33.22;;;12.02;;
49834;SDS011;35729;52.090;13.162;2023-11-21T04:35:16;31.63;;;12.60;;
49834;SDS011;35729;52.090;13.162;2023-11-21T04:37:45;42.60;;;14.55;;
49834;SDS011;35729;52.090;13.162;2023-11-21T04:40:13;37.92;;;14.50;;
49834;SDS011;35729;52.090;13.162;2023-11-21T04:42:42;37.30;;;14.43;;
49834;SDS011;35729;52.090;13.162;2023-11-21T04:45:11;47.55;;;15.88;;
49834;SDS011;35729;52.090;13.162;2023-11-21T04:47:41;46.40;;;15.55;;
49834;SDS011;35729;52.090;13.162;2023-11-21T04:50:10;45.70;;;16.73;;
49834;SDS011;35729;52.090;13.162;2023-11-21T04:52:41;44.42;;;17.15;;
49834;SDS011;35729;52.090;13.162;2023-11-21T04:55:09;47.38;;;18.92;;
49834;SDS011;35729;52.090;13.162;2023-11-21T04:57:38;51.97;;;16.98;;
49834;SDS011;35729;52.090;13.162;2023-11-21T05:00:09;53.10;;;18.85;;
49834;SDS011;35729;52.090;13.162;2023-11-21T05:02:38;47.22;;;18.02;;
49834;SDS011;35729;52.090;13.162;2023-11-21T05:05:07;50.38;;;19.55;;
49834;SDS011;35729;52.090;13.162;2023-11-21T05:07:35;52.05;;;18.35;;
49834;SDS011;35729;52.090;13.162;2023-11-21T05:10:07;56.75;;;19.55;;
49834;SDS011;35729;52.090;13.162;2023-11-21T05:12:37;49.75;;;20.13;;
49834;SDS011;35729;52.090;13.162;2023-11-21T05:15:06;51.60;;;20.27;;
49834;SDS011;35729;52.090;13.162;2023-11-21T05:17:38;54.53;;;20.63;;
49834;SDS011;35729;52.090;13.162;2023-11-21T05:20:08;50.97;;;20.08;;
49834;SDS011;35729;52.090;13.162;2023-11-21T05:22:38;51.03;;;20.75;;
49834;SDS011;35729;52.090;13.162;2023-11-21T05:25:11;55.28;;;21.58;;
49834;SDS011;35729;52.090;13.162;2023-11-21T05:27:39;63.88;;;22.20;;
49834;SDS011;35729;52.090;13.162;2023-11-21T05:30:08;51.03;;;21.83;;
49834;SDS011;35729;52.090;13.162;2023-11-21T05:32:38;54.88;;;21.77;;
49834;SDS011;35729;52.090;13.162;2023-11-21T05:35:14;50.42;;;20.13;;
49834;SDS011;35729;52.090;13.162;2023-11-21T05:37:43;62.90;;;22.05;;
49834;SDS011;35729;52.090;13.162;2023-11-21T05:40:14;63.65;;;20.67;;
49834;SDS011;35729;52.090;13.162;2023-11-21T05:42:43;62.67;;;22.73;;
49834;SDS011;35729;52.090;13.162;2023-11-21T05:45:12;58.85;;;23.95;;
49834;SDS011;35729;52.090;13.162;2023-11-21T05:47:41;51.80;;;22.95;;
49834;SDS011;35729;52.090;13.162;2023-11-21T05:50:11;48.42;;;21.67;;
49834;SDS011;35729;52.090;13.162;2023-11-21T05:52:41;52.80;;;22.05;;
49834;SDS011;35729;52.090;13.162;2023-11-21T05:55:10;48.65;;;22.55;;
49834;SDS011;35729;52.090;13.162;2023-11-21T05:57:42;45.95;;;21.55;;
49834;SDS011;35729;52.090;13.162;2023-11-21T06:00:12;43.40;;;21.30;;
49834;SDS011;35729;52.090;13.162;2023-11-21T06:02:45;46.28;;;22.52;;
49834;SDS011;35729;52.090;13.162;2023-11-21T06:05:15;47.58;;;22.77;;
49834;SDS011;35729;52.090;13.162;2023-11-21T06:07:45;46.03;;;22.48;;
49834;SDS011;35729;52.090;13.162;2023-11-21T06:10:13;39.13;;;20.77;;
49834;SDS011;35729;52.090;13.162;2023-11-21T06:12:47;43.55;;;22.42;;
49834;SDS011;35729;52.090;13.162;2023-11-21T06:15:15;41.28;;;21.80;;
49834;SDS011;35729;52.090;13.162;2023-11-21T06:17:45;38.22;;;20.80;;
49834;SDS011;35729;52.090;13.162;2023-11-21T06:20:17;40.75;;;22.60;;
49834;SDS011;35729;52.090;13.162;2023-11-21T06:22:47;39.50;;;20.65;;
49834;SDS011;35729;52.090;13.162;2023-11-21T06:25:16;38.90;;;20.20;;
49834;SDS011;35729;52.090;13.162;2023-11-21T06:27:48;33.38;;;19.48;;
49834;SDS011;35729;52.090;13.162;2023-11-21T06:30:16;32.33;;;18.05;;
49834;SDS011;35729;52.090;13.162;2023-11-21T06:32:46;34.42;;;18.25;;
49834;SDS011;35729;52.090;13.162;2023-11-21T06:35:16;29.15;;;18.00;;
49834;SDS011;35729;52.090;13.162;2023-11-21T06:37:45;31.65;;;17.38;;
49834;SDS011;35729;52.090;13.162;2023-11-21T06:40:14;30.30;;;17.17;;
49834;SDS011;35729;52.090;13.162;2023-11-21T06:42:43;27.58;;;17.00;;
49834;SDS011;35729;52.090;13.162;2023-11-21T06:45:14;28.13;;;17.05;;
49834;SDS011;35729;52.090;13.162;2023-11-21T06:47:43;27.10;;;15.73;;
49834;SDS011;35729;52.090;13.162;2023-11-21T06:50:12;26.88;;;15.50;;
49834;SDS011;35729;52.090;13.162;2023-11-21T06:52:41;26.13;;;15.40;;
49834;SDS011;35729;52.090;13.162;2023-11-21T06:55:09;25.27;;;15.85;;
49834;SDS011;35729;52.090;13.162;2023-11-21T06:57:38;28.00;;;16.27;;
49834;SDS011;35729;52.090;13.162;2023-11-21T07:00:07;27.88;;;15.75;;
49834;SDS011;35729;52.090;13.162;2023-11-21T07:02:39;28.38;;;17.50;;
49834;SDS011;35729;52.090;13.162;2023-11-21T07:05:08;30.85;;;17.40;;
49834;SDS011;35729;52.090;13.162;2023-11-21T07:07:36;25.27;;;15.02;;
49834;SDS011;35729;52.090;13.162;2023-11-21T07:10:05;26.05;;;15.50;;
49834;SDS011;35729;52.090;13.162;2023-11-21T07:12:36;25.73;;;15.10;;
49834;SDS011;35729;52.090;13.162;2023-11-21T07:15:06;22.58;;;14.35;;
49834;SDS011;35729;52.090;13.162;2023-11-21T07:17:36;25.23;;;15.13;;
49834;SDS011;35729;52.090;13.162;2023-11-21T07:20:08;21.88;;;13.65;;
49834;SDS011;35729;52.090;13.162;2023-11-21T07:22:44;20.83;;;13.35;;
49834;SDS011;35729;52.090;13.162;2023-11-21T07:25:12;19.67;;;13.32;;
49834;SDS011;35729;52.090;13.162;2023-11-21T07:27:41;20.77;;;13.43;;
49834;SDS011;35729;52.090;13.162;2023-11-21T07:30:16;20.13;;;13.43;;
49834;SDS011;35729;52.090;13.162;2023-11-21T07:32:44;19.73;;;12.73;;
49834;SDS011;35729;52.090;13.162;2023-11-21T07:35:15;20.65;;;13.65;;
49834;SDS011;35729;52.090;13.162;2023-11-21T07:37:44;20.33;;;12.85;;
49834;SDS011;35729;52.090;13.162;2023-11-21T07:40:14;16.45;;;12.07;;
49834;SDS011;35729;52.090;13.162;2023-11-21T07:42:42;16.05;;;12.05;;
49834;SDS011;35729;52.090;13.162;2023-11-21T07:45:11;18.38;;;11.27;;
49834;SDS011;35729;52.090;13.162;2023-11-21T07:47:40;19.90;;;12.35;;
49834;SDS011;35729;52.090;13.162;2023-11-21T07:50:09;17.92;;;10.88;;
49834;SDS011;35729;52.090;13.162;2023-11-21T07:52:41;17.40;;;11.13;;
49834;SDS011;35729;52.090;13.162;2023-11-21T07:55:09;16.40;;;10.93;;
49834;SDS011;35729;52.090;13.162;2023-11-21T07:57:39;16.17;;;11.15;;
49834;SDS011;35729;52.090;13.162;2023-11-21T08:00:08;15.43;;;11.02;;
49834;SDS011;35729;52.090;13.162;2023-11-21T08:02:37;17.83;;;11.55;;
49834;SDS011;35729;52.090;13.162;2023-11-21T08:05:07;18.30;;;11.15;;
49834;SDS011;35729;52.090;13.162;2023-11-21T08:07:36;14.98;;;10.77;;
49834;SDS011;35729;52.090;13.162;2023-11-21T08:10:08;14.88;;;10.52;;
49834;SDS011;35729;52.090;13.162;2023-11-21T08:12:38;17.58;;;11.07;;
49834;SDS011;35729;52.090;13.162;2023-11-21T08:15:08;14.80;;;10.25;;
49834;SDS011;35729;52.090;13.162;2023-11-21T08:17:37;15.40;;;10.15;;
49834;SDS011;35729;52.090;13.162;2023-11-21T08:20:06;12.05;;;8.90;;
49834;SDS011;35729;52.090;13.162;2023-11-21T08:22:36;13.82;;;9.75;;
49834;SDS011;35729;52.090;13.162;2023-11-21T08:25:08;14.52;;;10.02;;
49834;SDS011;35729;52.090;13.162;2023-11-21T08:27:37;13.05;;;8.82;;
49834;SDS011;35729;52.090;13.162;2023-11-21T08:30:06;11.25;;;8.38;;
49834;SDS011;35729;52.090;13.162;2023-11-21T08:32:35;12.48;;;9.32;;
49834;SDS011;35729;52.090;13.162;2023-11-21T08:35:04;14.38;;;9.18;;
49834;SDS011;35729;52.090;13.162;2023-11-21T08:37:33;12.70;;;9.23;;
49834;SDS011;35729;52.090;13.162;2023-11-21T08:40:04;12.85;;;9.77;;
49834;SDS011;35729;52.090;13.162;2023-11-21T08:42:41;13.38;;;9.48;;
49834;SDS011;35729;52.090;13.162;2023-11-21T08:45:10;14.52;;;9.88;;
49834;SDS011;35729;52.090;13.162;2023-11-21T08:47:39;13.30;;;9.43;;
49834;SDS011;35729;52.090;13.162;2023-11-21T08:50:09;13.63;;;9.35;;
49834;SDS011;35729;52.090;13.162;2023-11-21T08:52:38;11.75;;;8.18;;
49834;SDS011;35729;52.090;13.162;2023-11-21T08:55:09;11.25;;;8.52;;
49834;SDS011;35729;52.090;13.162;2023-11-21T08:57:39;11.63;;;8.15;;
49834;SDS011;35729;52.090;13.162;2023-11-21T09:00:08;11.52;;;8.77;;
49834;SDS011;35729;52.090;13.162;2023-11-21T09:02:38;14.30;;;8.90;;
49834;SDS011;35729;52.090;13.162;2023-11-21T09:05:07;11.75;;;8.18;;
49834;SDS011;35729;52.090;13.162;2023-11-21T09:07:38;14.75;;;9.85;;
49834;SDS011;35729;52.090;13.162;2023-11-21T09:10:07;14.13;;;9.10;;
49834;SDS011;35729;52.090;13.162;2023-11-21T09:12:38;12.48;;;8.55;;
49834;SDS011;35729;52.090;13.162;2023-11-21T09:15:08;10.98;;;8.23;;
49834;SDS011;35729;52.090;13.162;2023-11-21T09:17:38;10.88;;;7.90;;
49834;SDS011;35729;52.090;13.162;2023-11-21T09:20:08;14.27;;;8.43;;
49834;SDS011;35729;52.090;13.162;2023-11-21T09:22:39;12.15;;;7.75;;
49834;SDS011;35729;52.090;13.162;2023-11-21T09:25:12;11.63;;;7.53;;
49834;SDS011;35729;52.090;13.162;2023-11-21T09:27:41;9.93;;;7.45;;
49834;SDS011;35729;52.090;13.162;2023-11-21T09:30:11;10.95;;;7.35;;
49834;SDS011;35729;52.090;13.162;2023-11-21T09:32:40;10.98;;;8.05;;
49834;SDS011;35729;52.090;13.162;2023-11-21T09:35:10;9.95;;;6.68;;
49834;SDS011;35729;52.090;13.162;2023-11-21T09:37:39;8.88;;;6.82;;
49834;SDS011;35729;52.090;13.162;2023-11-21T09:40:16;12.25;;;8.77;;
49834;SDS011;35729;52.090;13.162;2023-11-21T09:42:51;9.50;;;7.20;;
49834;SDS011;35729;52.090;13.162;2023-11-21T09:45:25;10.10;;;7.65;;
49834;SDS011;35729;52.090;13.162;2023-11-21T09:47:56;10.15;;;7.22;;
49834;SDS011;35729;52.090;13.162;2023-11-21T09:50:25;10.68;;;7.65;;
49834;SDS011;35729;52.090;13.162;2023-11-21T09:52:55;10.48;;;7.78;;
49834;SDS011;35729;52.090;13.162;2023-11-21T09:55:28;10.30;;;7.55;;
49834;SDS011;35729;52.090;13.162;2023-11-21T09:58:01;10.60;;;7.75;;
49834;SDS011;35729;52.090;13.162;2023-11-21T10:00:32;9.48;;;6.65;;
49834;SDS011;35729;52.090;13.162;2023-11-21T10:03:01;11.77;;;7.65;;
49834;SDS011;35729;52.090;13.162;2023-11-21T10:05:30;12.45;;;7.70;;
49834;SDS011;35729;52.090;13.162;2023-11-21T10:07:59;10.57;;;6.95;;
49834;SDS011;35729;52.090;13.162;2023-11-21T10:10:30;12.05;;;7.63;;
49834;SDS011;35729;52.090;13.162;2023-11-21T10:13:01;10.43;;;6.93;;
49834;SDS011;35729;52.090;13.162;2023-11-21T10:15:33;10.95;;;6.95;;
49834;SDS011;35729;52.090;13.162;2023-11-21T10:18:03;13.68;;;7.40;;
49834;SDS011;35729;52.090;13.162;2023-11-21T10:20:34;13.15;;;7.85;;
49834;SDS011;35729;52.090;13.162;2023-11-21T10:23:03;14.35;;;7.93;;
49834;SDS011;35729;52.090;13.162;2023-11-21T10:25:35;13.90;;;6.95;;
49834;SDS011;35729;52.090;13.162;2023-11-21T10:28:04;14.90;;;7.20;;
49834;SDS011;35729;52.090;13.162;2023-11-21T10:30:32;12.02;;;6.75;;
49834;SDS011;35729;52.090;13.162;2023-11-21T10:33:03;11.98;;;7.13;;
49834;SDS011;35729;52.090;13.162;2023-11-21T10:35:39;11.85;;;6.35;;
49834;SDS011;35729;52.090;13.162;2023-11-21T10:38:12;13.52;;;7.32;;
49834;SDS011;35729;52.090;13.162;2023-11-21T10:40:43;11.90;;;6.45;;
49834;SDS011;35729;52.090;13.162;2023-11-21T10:43:12;11.73;;;6.47;;
49834;SDS011;35729;52.090;13.162;2023-11-21T10:45:41;13.50;;;6.80;;
49834;SDS011;35729;52.090;13.162;2023-11-21T10:48:12;14.57;;;7.57;;
49834;SDS011;35729;52.090;13.162;2023-11-21T10:50:43;14.35;;;6.35;;
49834;SDS011;35729;52.090;13.162;2023-11-21T10:53:13;16.25;;;6.43;;
49834;SDS011;35729;52.090;13.162;2023-11-21T10:55:44;9.48;;;5.50;;
49834;SDS011;35729;52.090;13.162;2023-11-21T10:58:13;13.40;;;6.22;;
49834;SDS011;35729;52.090;13.162;2023-11-21T11:00:42;15.88;;;6.57;;
49834;SDS011;35729;52.090;13.162;2023-11-21T11:03:12;16.75;;;7.10;;
49834;SDS011;35729;52.090;13.162;2023-11-21T11:05:41;13.90;;;6.80;;
49834;SDS011;35729;52.090;13.162;2023-11-21T11:08:16;16.02;;;6.68;;
49834;SDS011;35729;52.090;13.162;2023-11-21T11:10:54;15.50;;;7.07;;
49834;SDS011;35729;52.090;13.162;2023-11-21T11:13:23;16.42;;;7.20;;
49834;SDS011;35729;52.090;13.162;2023-11-21T11:15:53;13.75;;;6.88;;
49834;SDS011;35729;52.090;13.162;2023-11-21T11:18:27;13.68;;;6.50;;
49834;SDS011;35729;52.090;13.162;2023-11-21T11:20:57;16.88;;;7.53;;
49834;SDS011;35729;52.090;13.162;2023-11-21T11:23:40;17.83;;;7.43;;
49834;SDS011;35729;52.090;13.162;2023-11-21T11:26:24;15.48;;;7.47;;
49834;SDS011;35729;52.090;13.162;2023-11-21T11:29:03;14.18;;;7.00;;
49834;SDS011;35729;52.090;13.162;2023-11-21T11:31:40;16.90;;;8.50;;
49834;SDS011;35729;52.090;13.162;2023-11-21T11:34:23;19.30;;;8.95;;
49834;SDS011;35729;52.090;13.162;2023-11-21T11:36:59;15.30;;;6.80;;
49834;SDS011;35729;52.090;13.162;2023-11-21T11:39:30;15.25;;;7.00;;
49834;SDS011;35729;52.090;13.162;2023-11-21T11:42:06;15.60;;;7.53;;
49834;SDS011;35729;52.090;13.162;2023-11-21T11:44:46;13.65;;;6.68;;
49834;SDS011;35729;52.090;13.162;2023-11-21T11:47:23;14.63;;;7.25;;
49834;SDS011;35729;52.090;13.162;2023-11-21T11:49:58;14.85;;;8.15;;
49834;SDS011;35729;52.090;13.162;2023-11-21T11:52:32;14.02;;;7.13;;
49834;SDS011;35729;52.090;13.162;2023-11-21T11:55:06;14.27;;;6.35;;
49834;SDS011;35729;52.090;13.162;2023-11-21T11:57:40;13.23;;;6.95;;
49834;SDS011;35729;52.090;13.162;2023-11-21T12:00:10;10.60;;;5.90;;
49834;SDS011;35729;52.090;13.162;2023-11-21T12:02:47;14.80;;;7.57;;
49834;SDS011;35729;52.090;13.162;2023-11-21T12:05:17;14.52;;;7.00;;
49834;SDS011;35729;52.090;13.162;2023-11-21T12:07:48;11.73;;;5.95;;
49834;SDS011;35729;52.090;13.162;2023-11-21T12:10:19;14.27;;;6.03;;
49834;SDS011;35729;52.090;13.162;2023-11-21T12:12:52;13.88;;;6.80;;
49834;SDS011;35729;52.090;13.162;2023-11-21T12:15:23;9.47;;;5.50;;
49834;SDS011;35729;52.090;13.162;2023-11-21T12:17:54;10.85;;;5.45;;
49834;SDS011;35729;52.090;13.162;2023-11-21T12:20:24;9.65;;;5.88;;
49834;SDS011;35729;52.090;13.162;2023-11-21T12:22:54;9.60;;;5.20;;
49834;SDS011;35729;52.090;13.162;2023-11-21T12:25:24;13.20;;;4.82;;
49834;SDS011;35729;52.090;13.162;2023-11-21T12:27:57;7.50;;;4.35;;
49834;SDS011;35729;52.090;13.162;2023-11-21T12:30:28;6.22;;;3.67;;
49834;SDS011;35729;52.090;13.162;2023-11-21T12:32:58;5.55;;;3.72;;
49834;SDS011;35729;52.090;13.162;2023-11-21T12:35:28;7.03;;;3.50;;
49834;SDS011;35729;52.090;13.162;2023-11-21T12:37:59;5.18;;;3.03;;
49834;SDS011;35729;52.090;13.162;2023-11-21T12:40:28;5.13;;;3.17;;
49834;SDS011;35729;52.090;13.162;2023-11-21T12:43:00;4.95;;;3.28;;
49834;SDS011;35729;52.090;13.162;2023-11-21T12:45:29;5.50;;;3.30;;
49834;SDS011;35729;52.090;13.162;2023-11-21T12:47:59;4.25;;;3.20;;
49834;SDS011;35729;52.090;13.162;2023-11-21T12:50:32;6.53;;;3.42;;
49834;SDS011;35729;52.090;13.162;2023-11-21T12:53:02;7.88;;;3.78;;
49834;SDS011;35729;52.090;13.162;2023-11-21T12:55:33;5.57;;;3.20;;
49834;SDS011;35729;52.090;13.162;2023-11-21T12:58:06;5.78;;;3.67;;
49834;SDS011;35729;52.090;13.162;2023-11-21T13:00:38;4.80;;;3.30;;
49834;SDS011;35729;52.090;13.162;2023-11-21T13:03:08;8.27;;;3.65;;
49834;SDS011;35729;52.090;13.162;2023-11-21T13:05:42;5.25;;;3.58;;
49834;SDS011;35729;52.090;13.162;2023-11-21T13:08:14;5.88;;;3.70;;
49834;SDS011;35729;52.090;13.162;2023-11-21T13:10:45;5.63;;;4.18;;
49834;SDS011;35729;52.090;13.162;2023-11-21T13:13:17;5.82;;;4.15;;
49834;SDS011;35729;52.090;13.162;2023-11-21T13:15:49;4.65;;;3.20;;
49834;SDS011;35729;52.090;13.162;2023-11-21T13:18:19;6.72;;;4.03;;
49834;SDS011;35729;52.090;13.162;2023-11-21T13:20:48;5.45;;;3.42;;
49834;SDS011;35729;52.090;13.162;2023-11-21T13:23:17;5.75;;;3.58;;
49834;SDS011;35729;52.090;13.162;2023-11-21T13:25:46;5.78;;;3.90;;
49834;SDS011;35729;52.090;13.162;2023-11-21T13:28:17;5.20;;;3.92;;
49834;SDS011;35729;52.090;13.162;2023-11-21T13:30:54;6.35;;;3.58;;
49834;SDS011;35729;52.090;13.162;2023-11-21T13:33:22;6.85;;;3.67;;
49834;SDS011;35729;52.090;13.162;2023-11-21T13:35:52;5.28;;;3.67;;
49834;SDS011;35729;52.090;13.162;2023-11-21T13:38:22;6.35;;;4.40;;
49834;SDS011;35729;52.090;13.162;2023-11-21T13:40:55;5.47;;;4.43;;
49834;SDS011;35729;52.090;13.162;2023-11-21T13:43:26;4.68;;;3.97;;
49834;SDS011;35729;52.090;13.162;2023-11-21T13:45:56;5.35;;;4.80;;
49834;SDS011;35729;52.090;13.162;2023-11-21T13:48:31;5.50;;;4.80;;
49834;SDS011;35729;52.090;13.162;2023-11-21T13:51:07;15.68;;;9.45;;
49834;SDS011;35729;52.090;13.162;2023-11-21T13:53:42;6.65;;;5.93;;
49834;SDS011;35729;52.090;13.162;2023-11-21T13:56:13;6.05;;;5.45;;
49834;SDS011;35729;52.090;13.162;2023-11-21T13:58:47;5.03;;;4.32;;
49834;SDS011;35729;52.090;13.162;2023-11-21T14:01:16;6.50;;;5.07;;
49834;SDS011;35729;52.090;13.162;2023-11-21T14:04:06;5.90;;;4.45;;
49834;SDS011;35729;52.090;13.162;2023-11-21T14:06:38;5.15;;;4.63;;
49834;SDS011;35729;52.090;13.162;2023-11-21T14:09:13;5.22;;;4.40;;
49834;SDS011;35729;52.090;13.162;2023-11-21T14:14:19;5.72;;;5.13;;
49834;SDS011;35729;52.090;13.162;2023-11-21T14:16:50;6.82;;;5.57;;
49834;SDS011;35729;52.090;13.162;2023-11-21T14:19:18;6.20;;;5.60;;
49834;SDS011;35729;52.090;13.162;2023-11-21T14:21:51;6.32;;;5.72;;
49834;SDS011;35729;52.090;13.162;2023-11-21T14:24:20;7.45;;;5.80;;
49834;SDS011;35729;52.090;13.162;2023-11-21T14:26:50;6.65;;;5.95;;
49834;SDS011;35729;52.090;13.162;2023-11-21T14:29:22;7.90;;;6.15;;
49834;SDS011;35729;52.090;13.162;2023-11-21T14:31:51;8.38;;;6.30;;
49834;SDS011;35729;52.090;13.162;2023-11-21T14:34:22;7.53;;;5.65;;
49834;SDS011;35729;52.090;13.162;2023-11-21T14:36:51;8.02;;;6.65;;